Laida — EAVE — position and weather

sailwx.info

Track history (hours):
 
Tides and Currents Weather Stations Pressure Air Temp Water Temp Dewpoint Dewpoint Depression Visibility Wind Speed Wind Dir Waves Ship Positions

Laida

Last reported at 2015-Sep-03 18:32 UTC. Time now 2015-Sep-03 19:19 UTC.
Position N 51°16' E 004°22'.

Length 100 m; draft 5.8 m.

Type: Cargo ship. MMSI: 224509000.

Date/timePositionNaut miles runAvg speedWind from/ knotsBaromVisibWave heightAir tempDewpointWater temp
2015-Sep-03 18:32N 51°16' E 004°22'0 0.0
2015-Sep-03 17:32N 51°16' E 004°22'0 0.0
2015-Sep-03 16:32N 51°16' E 004°22'0 0.0
2015-Sep-03 15:32N 51°16' E 004°22'0 0.0
2015-Sep-03 14:32N 51°16' E 004°22'0 0.0
2015-Sep-03 13:32N 51°16' E 004°22'0 0.0
2015-Sep-03 12:32N 51°16' E 004°22'0 0.0
2015-Sep-03 11:30N 51°16' E 004°22'0 0.0
2015-Sep-03 10:32N 51°16' E 004°22'0 0.0
2015-Sep-03 09:32N 51°16' E 004°22'0 0.0
2015-Sep-03 08:30N 51°16' E 004°22'0 0.0
2015-Sep-03 07:32N 51°16' E 004°22'0 0.0
2015-Sep-03 06:32N 51°16' E 004°22'0 0.0
2015-Sep-03 05:30N 51°16' E 004°22'5 5.5
2015-Sep-03 04:33N 51°21' E 004°18'0 0.4
2015-Sep-03 03:34N 51°21' E 004°17'0 0.0
2015-Sep-03 02:34N 51°21' E 004°17'5 5.1
2015-Sep-03 01:33N 51°23' E 004°10'9 8.8
2015-Sep-03 00:33N 51°22' E 003°56'1211.5
2015-Sep-02 23:33N 51°25' E 003°38'1211.7
2015-Sep-02 22:33N 51°24' E 003°19'1110.8
2015-Sep-02 21:32N 51°24' E 003°02'1111.0
2015-Sep-02 20:33N 51°22' E 002°45'1110.1
2015-Sep-02 19:30N 51°21' E 002°28'1212.4
2015-Sep-02 18:33N 51°16' E 002°11'1313.4
2015-Sep-02 17:33N 51°09' E 001°53'1414.1
2015-Sep-02 16:34N 50°59' E 001°37'  
2015-Aug-30 12:33N 39°17' W 009°50'1212.4
2015-Aug-30 11:33N 39°05' W 009°50'1212.4
2015-Aug-30 10:33N 38°53' W 009°51'1212.4
2015-Aug-30 09:33N 38°40' W 009°50'1111.5
2015-Aug-30 08:33N 38°30' W 009°46'1211.9
2015-Aug-30 07:33N 38°18' W 009°42'1212.4
2015-Aug-30 06:33N 38°06' W 009°39'10510.0
2015-Aug-29 20:04N 36°45' W 008°15'612.2
2015-Aug-29 19:33N 36°45' W 008°07'1512.1
2015-Aug-29 18:20N 36°45' W 007°48'  
Track history (hours):
 
Tides and Currents Weather Stations Pressure Air Temp Water Temp Dewpoint Dewpoint Depression Visibility Wind Speed Wind Dir Waves Ship Positions

Laida

Last reported at 2015-Sep-03 18:32 UTC. Time now 2015-Sep-03 19:19 UTC.
Position N 51°16' E 004°22'.

Length 100 m; draft 5.8 m.

Type: Cargo ship. MMSI: 224509000.

Date/timePositionNaut miles runAvg speedWind from/ knotsBaromVisibWave heightAir tempDewpointWater temp
2015-Sep-03 18:32N 51°16' E 004°22'0 0.0
2015-Sep-03 17:32N 51°16' E 004°22'0 0.0
2015-Sep-03 16:32N 51°16' E 004°22'0 0.0
2015-Sep-03 15:32N 51°16' E 004°22'0 0.0
2015-Sep-03 14:32N 51°16' E 004°22'0 0.0
2015-Sep-03 13:32N 51°16' E 004°22'0 0.0
2015-Sep-03 12:32N 51°16' E 004°22'0 0.0
2015-Sep-03 11:30N 51°16' E 004°22'0 0.0
2015-Sep-03 10:32N 51°16' E 004°22'0 0.0
2015-Sep-03 09:32N 51°16' E 004°22'0 0.0
2015-Sep-03 08:30N 51°16' E 004°22'0 0.0
2015-Sep-03 07:32N 51°16' E 004°22'0 0.0
2015-Sep-03 06:32N 51°16' E 004°22'0 0.0
2015-Sep-03 05:30N 51°16' E 004°22'5 5.5
2015-Sep-03 04:33N 51°21' E 004°18'0 0.4
2015-Sep-03 03:34N 51°21' E 004°17'0 0.0
2015-Sep-03 02:34N 51°21' E 004°17'5 5.1
2015-Sep-03 01:33N 51°23' E 004°10'9 8.8
2015-Sep-03 00:33N 51°22' E 003°56'1211.5
2015-Sep-02 23:33N 51°25' E 003°38'1211.7
2015-Sep-02 22:33N 51°24' E 003°19'1110.8
2015-Sep-02 21:32N 51°24' E 003°02'1111.0
2015-Sep-02 20:33N 51°22' E 002°45'1110.1
2015-Sep-02 19:30N 51°21' E 002°28'1212.4
2015-Sep-02 18:33N 51°16' E 002°11'1313.4
2015-Sep-02 17:33N 51°09' E 001°53'1414.1
2015-Sep-02 16:34N 50°59' E 001°37'  
2015-Aug-30 12:33N 39°17' W 009°50'1212.4
2015-Aug-30 11:33N 39°05' W 009°50'1212.4
2015-Aug-30 10:33N 38°53' W 009°51'1212.4
2015-Aug-30 09:33N 38°40' W 009°50'1111.5
2015-Aug-30 08:33N 38°30' W 009°46'1211.9
2015-Aug-30 07:33N 38°18' W 009°42'1212.4
2015-Aug-30 06:33N 38°06' W 009°39'10510.0
2015-Aug-29 20:04N 36°45' W 008°15'612.2
2015-Aug-29 19:33N 36°45' W 008°07'1512.1
2015-Aug-29 18:20N 36°45' W 007°48'  

Dump ship's entire track history